createdAt,value
2018-03-11T00:00:03.119Z,10.90
2018-03-11T00:02:29.379Z,10.90
2018-03-11T00:04:55.726Z,10.80
2018-03-11T00:07:21.984Z,10.90
2018-03-11T00:09:48.215Z,10.80
2018-03-11T00:12:14.516Z,10.90
2018-03-11T00:14:40.772Z,10.90
2018-03-11T00:17:07.071Z,10.90
2018-03-11T00:19:34.039Z,10.90
2018-03-11T00:22:00.279Z,10.90
2018-03-11T00:24:26.558Z,10.90
2018-03-11T00:26:54.395Z,10.90
2018-03-11T00:29:20.719Z,10.90
2018-03-11T00:31:47.752Z,11.00
2018-03-11T00:34:14.023Z,10.90
2018-03-11T00:36:40.582Z,11.00
2018-03-11T00:39:06.854Z,10.90
2018-03-11T00:41:33.150Z,11.00
2018-03-11T00:43:59.399Z,11.00
2018-03-11T00:46:26.390Z,10.90
2018-03-11T00:48:52.779Z,10.90
2018-03-11T00:51:19.786Z,10.80
2018-03-11T00:53:46.039Z,10.70
2018-03-11T00:56:12.307Z,10.80
2018-03-11T00:58:38.579Z,10.70
2018-03-11T01:01:04.840Z,10.70
2018-03-11T01:03:31.095Z,10.70
2018-03-11T01:05:57.322Z,10.70
2018-03-11T01:08:23.599Z,10.60
2018-03-11T01:10:49.842Z,10.60
2018-03-11T01:13:16.131Z,10.70
2018-03-11T01:15:42.379Z,10.60
2018-03-11T01:18:08.644Z,10.60
2018-03-11T01:20:34.935Z,10.60
2018-03-11T01:23:01.207Z,10.60
2018-03-11T01:25:28.264Z,10.40
2018-03-11T01:27:54.516Z,10.40
2018-03-11T01:30:20.787Z,10.50
2018-03-11T01:32:47.079Z,10.40
2018-03-11T01:35:14.158Z,10.30
2018-03-11T01:37:40.651Z,10.20
2018-03-11T01:40:07.987Z,10.20
2018-03-11T01:42:34.530Z,10.20
2018-03-11T01:45:00.816Z,10.10
2018-03-11T01:47:27.062Z,10.10
2018-03-11T01:49:53.344Z,10.00
2018-03-11T01:52:19.594Z,10.10
2018-03-11T01:54:45.839Z,10.10
2018-03-11T01:57:12.067Z,10.00
2018-03-11T01:59:38.627Z,10.00
2018-03-11T02:02:04.939Z,9.90
2018-03-11T02:04:31.223Z,9.90
2018-03-11T02:06:57.912Z,10.00
2018-03-11T02:09:24.159Z,9.90
2018-03-11T02:11:50.422Z,9.90
2018-03-11T02:14:16.659Z,9.80
2018-03-11T02:16:42.928Z,9.70
2018-03-11T02:19:09.202Z,9.70
2018-03-11T02:21:35.482Z,9.70
2018-03-11T02:24:01.749Z,9.70
2018-03-11T02:26:28.018Z,9.70
2018-03-11T02:28:54.260Z,9.70
2018-03-11T02:31:20.540Z,9.70
2018-03-11T02:33:46.809Z,9.70
2018-03-11T02:36:13.228Z,9.60
2018-03-11T02:38:39.468Z,9.70
2018-03-11T02:41:05.728Z,9.70
2018-03-11T02:43:33.033Z,9.70
2018-03-11T02:45:59.303Z,9.70
2018-03-11T02:48:25.648Z,9.70
2018-03-11T02:50:51.931Z,9.80
2018-03-11T02:53:18.496Z,9.70
2018-03-11T02:55:44.783Z,9.70
2018-03-11T02:58:11.047Z,9.70
2018-03-11T03:00:37.283Z,9.60
2018-03-11T03:03:03.658Z,9.60
2018-03-11T03:05:29.992Z,9.50
2018-03-11T03:07:56.272Z,9.60
2018-03-11T03:10:22.503Z,9.60
2018-03-11T03:12:49.077Z,9.60
2018-03-11T03:15:15.319Z,9.60
2018-03-11T03:17:42.323Z,9.60
2018-03-11T03:20:08.585Z,9.60
2018-03-11T03:22:35.599Z,9.60
2018-03-11T03:25:01.858Z,9.60
2018-03-11T03:27:28.119Z,9.60
2018-03-11T03:29:54.670Z,9.60
2018-03-11T03:32:21.576Z,9.60
2018-03-11T03:34:47.840Z,9.60
2018-03-11T03:37:14.140Z,9.60
2018-03-11T03:39:40.379Z,9.60
2018-03-11T03:42:07.535Z,9.70
2018-03-11T03:44:34.231Z,9.70
2018-03-11T03:47:00.523Z,9.70
2018-03-11T03:49:26.800Z,9.60
2018-03-11T03:51:53.568Z,9.60
2018-03-11T03:54:20.703Z,9.60
2018-03-11T03:56:46.931Z,9.60
2018-03-11T03:59:13.180Z,9.60
2018-03-11T04:01:39.439Z,9.60
2018-03-11T04:04:05.697Z,9.60
2018-03-11T04:06:31.965Z,9.60
2018-03-11T04:08:58.231Z,9.60
2018-03-11T04:11:24.495Z,9.60
2018-03-11T04:13:50.855Z,9.60
2018-03-11T04:16:17.379Z,9.60
2018-03-11T04:18:43.643Z,9.60
2018-03-11T04:21:09.895Z,9.60
2018-03-11T04:23:36.203Z,9.70
2018-03-11T04:26:02.621Z,9.70
2018-03-11T04:28:28.915Z,9.70
2018-03-11T04:30:55.478Z,9.80
2018-03-11T04:33:24.727Z,9.80
2018-03-11T04:35:51.702Z,9.90
2018-03-11T04:38:18.093Z,9.90
2018-03-11T04:40:44.331Z,9.90
2018-03-11T04:43:11.027Z,9.90
2018-03-11T04:45:37.687Z,10.00
2018-03-11T04:48:03.944Z,10.00
2018-03-11T04:50:30.234Z,10.00
2018-03-11T04:52:57.316Z,9.90
2018-03-11T04:55:23.591Z,9.90
2018-03-11T04:57:49.923Z,9.90
2018-03-11T05:00:16.215Z,9.90
2018-03-11T05:02:42.519Z,9.90
2018-03-11T05:05:08.786Z,9.90
2018-03-11T05:07:35.625Z,9.90
2018-03-11T05:10:01.912Z,10.00
2018-03-11T05:12:28.162Z,9.90
2018-03-11T05:14:54.431Z,9.90
2018-03-11T05:17:20.679Z,9.90
2018-03-11T05:19:46.931Z,9.80
2018-03-11T05:22:13.191Z,9.80
2018-03-11T05:24:39.455Z,9.80
2018-03-11T05:27:05.720Z,9.80
2018-03-11T05:29:32.027Z,9.80
2018-03-11T05:31:58.274Z,9.80
2018-03-11T05:34:24.512Z,9.80
2018-03-11T05:36:50.793Z,9.70
2018-03-11T05:39:17.034Z,9.70
2018-03-11T05:41:43.339Z,9.70
2018-03-11T05:44:09.588Z,9.70
2018-03-11T05:46:36.523Z,9.70
2018-03-11T05:49:02.792Z,9.70
2018-03-11T05:51:29.779Z,9.60
2018-03-11T05:53:56.037Z,9.60
2018-03-11T05:56:22.992Z,9.60
2018-03-11T05:58:50.028Z,9.70
2018-03-11T06:01:16.331Z,9.60
2018-03-11T06:03:43.087Z,9.70
2018-03-11T06:06:09.378Z,9.70
2018-03-11T06:08:35.643Z,9.80
2018-03-11T06:11:05.387Z,9.90
2018-03-11T06:13:32.646Z,9.90
2018-03-11T06:15:59.372Z,9.90
2018-03-11T06:18:27.888Z,10.00
2018-03-11T06:20:57.072Z,10.00
2018-03-11T06:23:24.183Z,10.10
2018-03-11T06:25:51.391Z,10.10
2018-03-11T06:28:17.751Z,10.10
2018-03-11T06:30:44.624Z,10.10
2018-03-11T06:33:10.903Z,10.20
2018-03-11T06:35:38.019Z,10.20
2018-03-11T06:38:04.563Z,10.20
2018-03-11T06:40:30.815Z,10.20
2018-03-11T06:42:57.199Z,10.30
2018-03-11T06:45:23.438Z,10.30
2018-03-11T06:47:54.184Z,10.40
2018-03-11T06:50:20.416Z,10.40
2018-03-11T06:52:47.452Z,10.60
2018-03-11T06:55:14.271Z,10.60
2018-03-11T06:57:40.626Z,10.70
2018-03-11T07:00:07.028Z,10.70
2018-03-11T07:02:33.599Z,10.80
2018-03-11T07:05:04.789Z,10.80
2018-03-11T07:07:31.058Z,10.80
2018-03-11T07:09:57.323Z,10.80
2018-03-11T07:12:23.551Z,10.80
2018-03-11T07:14:49.819Z,10.90
2018-03-11T07:17:16.039Z,10.90
2018-03-11T07:19:42.315Z,10.90
2018-03-11T07:22:08.681Z,10.90
2018-03-11T07:24:34.925Z,11.00
2018-03-11T07:27:01.946Z,10.90
2018-03-11T07:29:28.210Z,10.90
2018-03-11T07:31:54.461Z,10.90
2018-03-11T07:34:21.463Z,10.90
2018-03-11T07:36:47.697Z,10.90
2018-03-11T07:39:13.954Z,10.90
2018-03-11T07:41:40.275Z,10.90
2018-03-11T07:44:06.530Z,10.90
2018-03-11T07:46:37.779Z,10.90
2018-03-11T07:49:04.695Z,10.90
2018-03-11T07:51:30.941Z,11.00
2018-03-11T07:53:57.558Z,11.00
2018-03-11T07:56:23.803Z,11.10
2018-03-11T07:58:50.076Z,11.10
2018-03-11T08:01:16.373Z,11.20
2018-03-11T08:03:43.598Z,11.30
2018-03-11T08:06:11.450Z,11.20
2018-03-11T08:08:37.727Z,11.30
2018-03-11T08:11:04.359Z,11.40
2018-03-11T08:13:30.583Z,11.60
2018-03-11T08:15:57.235Z,11.70
2018-03-11T08:18:23.743Z,11.80
2018-03-11T08:20:50.096Z,11.90
2018-03-11T08:23:16.327Z,11.90
2018-03-11T08:25:42.604Z,12.00
2018-03-11T08:28:08.844Z,12.00
2018-03-11T08:30:35.107Z,12.10
2018-03-11T08:33:01.338Z,12.10
2018-03-11T08:35:27.595Z,12.10
2018-03-11T08:37:53.935Z,12.10
2018-03-11T08:40:20.234Z,12.10
2018-03-11T08:42:46.527Z,12.20
2018-03-11T08:45:12.927Z,12.20
2018-03-11T08:47:39.343Z,12.20
2018-03-11T08:50:05.621Z,12.10
2018-03-11T08:52:32.019Z,12.20
2018-03-11T08:54:58.270Z,12.30
2018-03-11T08:57:25.246Z,12.40
2018-03-11T08:59:51.564Z,12.40
2018-03-11T09:02:18.575Z,12.50
2018-03-11T09:04:44.858Z,12.40
2018-03-11T09:07:11.357Z,12.50
2018-03-11T09:09:37.619Z,12.60
2018-03-11T09:12:03.912Z,12.60
2018-03-11T09:14:32.098Z,12.70
2018-03-11T09:16:59.098Z,12.90
2018-03-11T09:19:25.407Z,12.90
2018-03-11T09:21:51.671Z,13.10
2018-03-11T09:24:18.036Z,13.20
2018-03-11T09:26:44.356Z,13.40
2018-03-11T09:29:10.724Z,13.60
2018-03-11T09:31:37.731Z,13.80
2018-03-11T09:34:04.249Z,13.80
2018-03-11T09:36:30.545Z,13.90
2018-03-11T09:38:57.029Z,14.00
2018-03-11T09:41:23.291Z,14.20
2018-03-11T09:43:49.559Z,14.40
2018-03-11T09:46:18.788Z,14.60
2018-03-11T09:48:45.048Z,14.70
2018-03-11T09:51:12.650Z,14.90
2018-03-11T09:53:39.555Z,15.10
2018-03-11T09:56:05.798Z,15.10
2018-03-11T09:58:32.070Z,15.00
2018-03-11T10:00:58.435Z,15.00
2018-03-11T10:03:24.715Z,14.90
2018-03-11T10:05:51.022Z,14.90
2018-03-11T10:08:18.063Z,14.90
2018-03-11T10:10:45.388Z,14.70
2018-03-11T10:13:11.652Z,14.70
2018-03-11T10:15:38.644Z,14.60
2018-03-11T10:18:05.635Z,14.60
2018-03-11T10:20:31.880Z,14.60
2018-03-11T10:22:58.383Z,14.70
2018-03-11T10:25:24.890Z,14.70
2018-03-11T10:27:51.188Z,14.70
2018-03-11T10:30:17.463Z,14.70
2018-03-11T10:32:44.611Z,14.80
2018-03-11T10:35:10.851Z,14.70
2018-03-11T10:37:37.163Z,14.70
2018-03-11T10:40:03.516Z,14.70
2018-03-11T10:42:30.830Z,14.70
2018-03-11T10:44:57.126Z,14.70
2018-03-11T10:47:23.384Z,14.70
2018-03-11T10:49:49.684Z,14.80
2018-03-11T10:52:16.664Z,14.70
2018-03-11T10:54:43.274Z,14.70
2018-03-11T10:57:09.731Z,14.70
2018-03-11T11:02:22.426Z,14.70
2018-03-11T11:04:54.855Z,14.60
2018-03-11T11:07:21.091Z,14.60
2018-03-11T11:09:48.129Z,14.80
2018-03-11T11:12:14.383Z,14.70
2018-03-11T11:14:41.393Z,14.70
2018-03-11T11:17:07.636Z,14.60
2018-03-11T11:19:33.915Z,14.60
2018-03-11T11:22:00.875Z,14.70
2018-03-11T11:24:27.154Z,14.70
2018-03-11T11:26:53.379Z,14.80
2018-03-11T11:29:19.710Z,14.90
2018-03-11T11:31:46.088Z,14.90
2018-03-11T11:34:12.352Z,14.90
2018-03-11T11:36:38.608Z,14.90
2018-03-11T11:39:05.154Z,15.00
2018-03-11T11:41:31.424Z,15.10
2018-03-11T11:43:57.667Z,15.10
2018-03-11T11:46:38.888Z,15.00
2018-03-11T11:49:05.120Z,15.00
2018-03-11T11:51:31.531Z,15.00
2018-03-11T11:53:58.052Z,15.00
2018-03-11T11:56:25.098Z,15.00
2018-03-11T11:58:51.335Z,15.00
2018-03-11T12:01:17.582Z,15.00
2018-03-11T12:03:43.827Z,15.00
2018-03-11T12:06:10.083Z,15.00
2018-03-11T12:08:37.161Z,15.00
2018-03-11T12:11:03.423Z,15.00
2018-03-11T12:13:30.455Z,15.00
2018-03-11T12:15:56.764Z,15.00
2018-03-11T12:18:23.066Z,15.00
2018-03-11T12:20:49.331Z,15.10
2018-03-11T12:23:16.566Z,15.20
2018-03-11T12:25:43.708Z,15.20
2018-03-11T12:28:09.942Z,15.20
2018-03-11T12:30:36.330Z,15.10
2018-03-11T12:33:03.079Z,15.10
2018-03-11T12:35:29.331Z,15.20
2018-03-11T12:37:55.605Z,15.20
2018-03-11T12:40:21.966Z,15.20
2018-03-11T12:42:48.246Z,15.30
2018-03-11T12:45:15.247Z,15.40
2018-03-11T12:47:41.540Z,15.40
2018-03-11T12:50:08.501Z,15.40
2018-03-11T12:52:34.881Z,15.30
2018-03-11T12:55:01.067Z,15.40
2018-03-11T12:57:27.455Z,15.30
2018-03-11T12:59:53.985Z,15.40
2018-03-11T13:02:20.319Z,15.30
2018-03-11T13:04:46.558Z,15.30
2018-03-11T13:07:12.943Z,15.20
2018-03-11T13:09:40.293Z,15.20
2018-03-11T13:12:07.705Z,15.20
2018-03-11T13:14:34.621Z,15.20
2018-03-11T13:17:02.318Z,15.20
2018-03-11T13:19:28.661Z,15.20
2018-03-11T13:21:54.935Z,15.30
2018-03-11T13:24:21.163Z,15.30
2018-03-11T13:26:47.404Z,15.30
2018-03-11T13:29:13.724Z,15.30
2018-03-11T13:31:40.596Z,15.30
2018-03-11T13:34:19.123Z,15.50
2018-03-11T13:36:48.292Z,15.50
2018-03-11T13:39:27.729Z,15.50
2018-03-11T13:41:54.426Z,15.60
2018-03-11T13:44:20.756Z,15.60
2018-03-11T13:47:08.771Z,15.60
2018-03-11T13:49:36.259Z,15.60
2018-03-11T13:52:14.599Z,15.60
2018-03-11T13:54:41.582Z,15.50
2018-03-11T13:57:31.820Z,15.50
2018-03-11T13:59:58.064Z,15.50
2018-03-11T14:02:25.551Z,15.80
2018-03-11T14:04:51.804Z,15.80
2018-03-11T14:07:18.036Z,15.90
2018-03-11T14:09:44.276Z,16.00
2018-03-11T14:12:10.507Z,16.20
2018-03-11T14:14:36.751Z,16.50
2018-03-11T14:17:03.217Z,16.70
2018-03-11T14:19:30.219Z,17.30
2018-03-11T14:21:56.458Z,17.30
2018-03-11T14:24:22.722Z,17.80
2018-03-11T14:26:49.683Z,18.50
2018-03-11T14:29:16.150Z,18.50
2018-03-11T14:31:42.864Z,18.90
2018-03-11T14:34:09.176Z,19.30
2018-03-11T14:36:35.440Z,19.50
2018-03-11T14:39:01.783Z,19.40
2018-03-11T14:41:27.996Z,19.60
2018-03-11T14:43:54.294Z,19.40
2018-03-11T14:46:20.550Z,19.30
2018-03-11T14:48:46.983Z,18.90
2018-03-11T14:51:14.106Z,18.20
2018-03-11T14:53:40.332Z,18.20
2018-03-11T14:56:06.775Z,18.10
2018-03-11T14:58:33.003Z,17.70
2018-03-11T15:00:59.303Z,17.30
2018-03-11T15:03:25.547Z,17.10
2018-03-11T15:05:51.835Z,16.90
2018-03-11T15:08:18.060Z,16.70
2018-03-11T15:10:44.323Z,16.50
2018-03-11T15:13:11.039Z,16.30
2018-03-11T15:15:37.586Z,16.30
2018-03-11T15:18:03.971Z,16.40
2018-03-11T15:20:30.275Z,16.40
2018-03-11T15:22:57.195Z,16.50
2018-03-11T15:25:23.622Z,16.70
2018-03-11T15:27:49.885Z,16.90
2018-03-11T15:30:18.389Z,17.40
2018-03-11T15:32:45.614Z,17.50
2018-03-11T15:35:12.131Z,17.50
2018-03-11T15:37:38.423Z,17.60
2018-03-11T15:40:04.959Z,17.70
2018-03-11T15:42:31.731Z,17.80
2018-03-11T15:44:58.287Z,17.70
2018-03-11T15:47:24.666Z,17.60
2018-03-11T15:49:51.308Z,17.50
2018-03-11T15:52:18.320Z,17.00
2018-03-11T15:54:44.530Z,17.00
2018-03-11T15:57:11.619Z,16.90
2018-03-11T15:59:37.842Z,16.90
2018-03-11T16:02:04.266Z,16.80
2018-03-11T16:04:30.518Z,16.70
2018-03-11T16:06:58.137Z,16.40
2018-03-11T16:09:24.487Z,16.40
2018-03-11T16:11:50.877Z,16.40
2018-03-11T16:14:17.163Z,16.30
2018-03-11T16:16:44.189Z,16.00
2018-03-11T16:19:10.558Z,16.00
2018-03-11T16:21:37.071Z,15.90
2018-03-11T16:24:03.338Z,15.80
2018-03-11T16:26:29.981Z,15.70
2018-03-11T16:28:56.848Z,15.60
2018-03-11T16:31:23.831Z,15.50
2018-03-11T16:33:51.343Z,15.50
2018-03-11T16:36:17.704Z,15.40
2018-03-11T16:38:43.954Z,15.30
2018-03-11T16:41:10.211Z,15.20
2018-03-11T16:43:36.464Z,15.10
2018-03-11T16:46:02.698Z,15.10
2018-03-11T16:48:29.117Z,15.10
2018-03-11T16:50:55.431Z,15.00
2018-03-11T16:53:21.696Z,14.90
2018-03-11T16:55:47.955Z,14.90
2018-03-11T16:58:14.215Z,14.80
2018-03-11T17:00:40.478Z,14.60
2018-03-11T17:03:06.712Z,14.50
2018-03-11T17:05:32.983Z,14.50
2018-03-11T17:07:59.488Z,14.30
2018-03-11T17:10:25.767Z,14.20
2018-03-11T17:12:52.003Z,14.20
2018-03-11T17:15:18.295Z,14.10
2018-03-11T17:17:44.563Z,14.00
2018-03-11T17:20:10.932Z,13.90
2018-03-11T17:22:37.259Z,13.80
2018-03-11T17:25:03.535Z,13.70
2018-03-11T17:27:30.079Z,13.60
2018-03-11T17:29:56.828Z,13.60
2018-03-11T17:32:23.399Z,13.60
2018-03-11T17:34:49.663Z,13.50
2018-03-11T17:37:16.631Z,13.30
2018-03-11T17:39:43.255Z,13.30
2018-03-11T17:42:09.495Z,13.30
2018-03-11T17:44:35.747Z,13.30
2018-03-11T17:47:02.012Z,13.30
2018-03-11T17:49:28.327Z,13.20
2018-03-11T17:51:54.608Z,13.10
2018-03-11T17:54:21.623Z,12.80
2018-03-11T17:56:47.881Z,12.90
2018-03-11T17:59:14.164Z,12.80
2018-03-11T18:01:41.880Z,12.80
2018-03-11T18:04:08.976Z,12.70
2018-03-11T18:06:35.502Z,12.70
2018-03-11T18:09:02.311Z,12.70
2018-03-11T18:11:28.612Z,12.60
2018-03-11T18:13:54.859Z,12.60
2018-03-11T18:16:21.139Z,12.60
2018-03-11T18:18:47.372Z,12.50
2018-03-11T18:21:13.639Z,12.50
2018-03-11T18:23:39.885Z,12.50
2018-03-11T18:26:06.175Z,12.50
2018-03-11T18:28:32.412Z,12.50
2018-03-11T18:30:58.683Z,12.50
2018-03-11T18:33:24.991Z,12.50
2018-03-11T18:35:51.347Z,12.60
2018-03-11T18:38:18.444Z,12.60
2018-03-11T18:40:44.683Z,12.50
2018-03-11T18:43:10.972Z,12.40
2018-03-11T18:45:37.225Z,12.30
2018-03-11T18:48:04.235Z,12.30
2018-03-11T18:50:30.601Z,12.30
2018-03-11T18:52:57.611Z,12.20
2018-03-11T18:55:23.848Z,12.20
2018-03-11T18:57:50.106Z,12.10
2018-03-11T19:00:16.472Z,12.10
2018-03-11T19:02:42.750Z,12.10
2018-03-11T19:05:09.115Z,12.10
2018-03-11T19:07:36.140Z,12.10
2018-03-11T19:10:02.867Z,12.10
2018-03-11T19:12:32.568Z,12.10
2018-03-11T19:14:58.833Z,12.10
2018-03-11T19:17:26.052Z,12.10
2018-03-11T19:19:52.277Z,12.10
2018-03-11T19:22:18.540Z,12.10
2018-03-11T19:24:44.783Z,12.00
2018-03-11T19:27:11.106Z,12.00
2018-03-11T19:29:37.364Z,12.00
2018-03-11T19:32:03.671Z,12.00
2018-03-11T19:34:29.907Z,12.00
2018-03-11T19:36:56.251Z,11.80
2018-03-11T19:39:22.664Z,11.80
2018-03-11T19:41:48.932Z,11.70
2018-03-11T19:44:15.971Z,11.60
2018-03-11T19:46:42.421Z,11.60
2018-03-11T19:49:08.692Z,11.60
2018-03-11T19:51:34.916Z,11.50
2018-03-11T19:54:01.186Z,11.60
2018-03-11T19:56:27.435Z,11.60
2018-03-11T19:58:54.436Z,11.50
2018-03-11T20:01:20.964Z,11.50
2018-03-11T20:03:47.216Z,11.40
2018-03-11T20:06:13.570Z,11.40
2018-03-11T20:08:40.579Z,11.40
2018-03-11T20:11:07.033Z,11.40
2018-03-11T20:13:34.057Z,11.40
2018-03-11T20:16:00.327Z,11.40
2018-03-11T20:18:26.699Z,11.40
2018-03-11T20:20:52.967Z,11.50
2018-03-11T20:23:19.439Z,11.40
2018-03-11T20:25:46.453Z,11.60
2018-03-11T20:28:12.708Z,11.50
2018-03-11T20:30:39.330Z,11.60
2018-03-11T20:33:05.611Z,11.50
2018-03-11T20:35:32.030Z,11.50
2018-03-11T20:37:58.323Z,11.50
2018-03-11T20:40:24.643Z,11.50
2018-03-11T20:42:50.886Z,11.50
2018-03-11T20:45:18.182Z,11.50
2018-03-11T20:47:44.427Z,11.50
2018-03-11T20:50:10.682Z,11.50
2018-03-11T20:52:36.948Z,11.40
2018-03-11T20:55:03.997Z,11.30
2018-03-11T20:57:30.248Z,11.30
2018-03-11T20:59:56.543Z,11.30
2018-03-11T21:02:22.776Z,11.20
2018-03-11T21:04:49.021Z,11.20
2018-03-11T21:07:16.089Z,11.10
2018-03-11T21:09:43.808Z,11.00
2018-03-11T21:12:10.971Z,11.00
2018-03-11T21:14:37.231Z,11.00
2018-03-11T21:17:04.283Z,10.90
2018-03-11T21:19:30.599Z,10.80
2018-03-11T21:21:57.007Z,10.70
2018-03-11T21:24:23.488Z,10.70
2018-03-11T21:26:49.879Z,10.80
2018-03-11T21:29:16.160Z,10.70
2018-03-11T21:31:42.632Z,10.70
2018-03-11T21:34:08.947Z,10.70
2018-03-11T21:36:35.325Z,10.70
2018-03-11T21:39:01.731Z,10.70
2018-03-11T21:41:28.052Z,10.70
2018-03-11T21:43:54.300Z,10.80
2018-03-11T21:46:20.570Z,10.90
2018-03-11T21:48:48.823Z,10.90
2018-03-11T21:51:15.954Z,10.90
2018-03-11T21:53:42.195Z,10.90
2018-03-11T21:56:08.570Z,10.90
2018-03-11T21:58:35.556Z,10.80
2018-03-11T22:01:02.052Z,10.80
2018-03-11T22:03:29.301Z,10.70
2018-03-11T22:05:55.538Z,10.70
2018-03-11T22:08:21.832Z,10.60
2018-03-11T22:10:48.096Z,10.60
2018-03-11T22:13:15.119Z,10.40
2018-03-11T22:15:41.383Z,10.40
2018-03-11T22:18:07.719Z,10.40
2018-03-11T22:20:33.973Z,10.40
2018-03-11T22:23:00.387Z,10.40
2018-03-11T22:25:26.630Z,10.30
2018-03-11T22:27:53.380Z,10.30
2018-03-11T22:30:19.690Z,10.30
2018-03-11T22:32:45.943Z,10.20
2018-03-11T22:35:12.180Z,10.20
2018-03-11T22:37:39.184Z,10.20
2018-03-11T22:40:05.476Z,10.20
2018-03-11T22:42:31.752Z,10.20
2018-03-11T22:44:58.032Z,10.10
2018-03-11T22:47:24.279Z,10.00
2018-03-11T22:49:50.531Z,10.00
2018-03-11T22:52:16.777Z,10.10
2018-03-11T22:54:43.044Z,10.10
2018-03-11T22:57:09.299Z,10.20
2018-03-11T22:59:36.479Z,10.30
2018-03-11T23:02:02.740Z,10.30
2018-03-11T23:04:28.988Z,10.30
2018-03-11T23:06:55.233Z,10.30
2018-03-11T23:09:21.492Z,10.30
2018-03-11T23:11:47.722Z,10.30
2018-03-11T23:14:13.987Z,10.30
2018-03-11T23:16:40.223Z,10.30
2018-03-11T23:19:15.433Z,10.20
2018-03-11T23:21:41.656Z,10.10
2018-03-11T23:24:07.912Z,10.10
2018-03-11T23:26:34.172Z,10.10
2018-03-11T23:29:00.911Z,10.00
2018-03-11T23:31:27.467Z,10.10
2018-03-11T23:33:53.744Z,10.00
2018-03-11T23:36:20.067Z,9.90
2018-03-11T23:38:46.302Z,10.00
2018-03-11T23:41:12.643Z,9.90
2018-03-11T23:43:38.888Z,9.90
2018-03-11T23:46:05.148Z,9.80
2018-03-11T23:48:31.379Z,9.80
2018-03-11T23:50:57.623Z,9.80
2018-03-11T23:53:23.848Z,9.80
2018-03-11T23:55:50.153Z,9.80
2018-03-11T23:58:16.402Z,9.80
